createdAt,value
2023-03-21T00:00:15.788Z,7.55
2023-03-21T00:03:55.117Z,7.44
2023-03-21T00:07:45.242Z,7.35
2023-03-21T00:11:37.623Z,7.25
2023-03-21T00:15:30.723Z,7.15
2023-03-21T00:19:04.255Z,7.06
2023-03-21T00:22:36.933Z,7.03
2023-03-21T00:26:27.565Z,7.04
2023-03-21T00:30:18.267Z,7.03
2023-03-21T00:34:08.227Z,7.03
2023-03-21T00:37:57.662Z,7.01
2023-03-21T00:41:47.243Z,6.99
2023-03-21T00:45:36.684Z,7.01
2023-03-21T00:49:27.102Z,7.03
2023-03-21T00:53:16.398Z,7.06
2023-03-21T00:57:05.818Z,7.12
2023-03-21T01:00:55.763Z,7.16
2023-03-21T01:04:35.708Z,7.19
2023-03-21T01:08:35.182Z,7.21
2023-03-21T01:12:31.276Z,7.21
2023-03-21T01:16:24.103Z,7.21
2023-03-21T01:20:13.581Z,7.20
2023-03-21T01:24:03.020Z,7.19
2023-03-21T01:27:53.133Z,7.19
2023-03-21T01:31:43.379Z,7.20
2023-03-21T01:35:40.915Z,7.19
2023-03-21T01:39:38.259Z,7.17
2023-03-21T01:43:28.311Z,7.14
2023-03-21T01:47:33.216Z,7.16
2023-03-21T01:51:19.689Z,7.16
2023-03-21T01:55:08.987Z,7.14
2023-03-21T01:58:58.367Z,7.12
2023-03-21T02:03:11.565Z,7.14
2023-03-21T02:07:03.887Z,7.18
2023-03-21T02:10:53.834Z,7.19
2023-03-21T02:14:48.157Z,7.22
2023-03-21T02:18:40.218Z,7.26
2023-03-21T02:22:38.641Z,7.30
2023-03-21T02:26:45.146Z,7.31
2023-03-21T02:30:50.801Z,7.29
2023-03-21T02:34:50.027Z,7.30
2023-03-21T02:38:45.028Z,7.32
2023-03-21T02:42:37.016Z,7.34
